Time;durP1;ratioP1;P1;durP2;ratioP2;P2;SDS_P1;SDS_P2;PMS_P1;PMS_P2;Temp;Humidity;BMP_temperature;BMP_pressure;BME280_temperature;BME280_humidity;BME280_pressure;Samples;Min_cycle;Max_cycle;Signal;HPM_P1;HPM_P2
2023/10/25 00:00:57;;;;;;;1.13;0.60;;;12.80;99.90;;;;;;5117081;28;20378;-74
2023/10/25 00:03:22;;;;;;;0.85;0.60;;;12.80;99.90;;;;;;5099790;28;20020;-74
2023/10/25 00:05:48;;;;;;;0.88;0.45;;;12.80;99.90;;;;;;5118025;28;20065;-74
2023/10/25 00:08:14;;;;;;;0.85;0.47;;;12.80;99.90;;;;;;5118014;28;20099;-74
2023/10/25 00:10:39;;;;;;;1.70;0.75;;;12.80;99.90;;;;;;5117731;28;20472;-74
2023/10/25 00:13:05;;;;;;;1.38;0.60;;;12.80;99.90;;;;;;5118084;28;20050;-74
2023/10/25 00:15:31;;;;;;;2.05;0.60;;;12.80;99.90;;;;;;5126208;27;20023;-74
2023/10/25 00:17:56;;;;;;;1.17;0.52;;;12.90;99.90;;;;;;5117899;28;20012;-74
2023/10/25 00:20:22;;;;;;;1.63;0.63;;;12.90;99.90;;;;;;5117813;28;20110;-74
2023/10/25 00:22:48;;;;;;;1.48;0.60;;;12.90;99.90;;;;;;5117767;28;20120;-74
2023/10/25 00:25:13;;;;;;;0.80;0.60;;;12.90;99.90;;;;;;5117607;28;20028;-74
2023/10/25 00:27:39;;;;;;;1.13;0.60;;;12.90;99.90;;;;;;5117949;28;20047;-74
2023/10/25 00:30:05;;;;;;;0.82;0.60;;;12.90;99.90;;;;;;5117823;28;20381;-74
2023/10/25 00:32:31;;;;;;;0.93;0.50;;;13.00;99.90;;;;;;5099197;28;20020;-73
2023/10/25 00:34:56;;;;;;;0.80;0.68;;;12.90;99.90;;;;;;5117794;28;20026;-73
2023/10/25 00:37:22;;;;;;;1.05;0.65;;;12.90;99.90;;;;;;5117654;28;20027;-73
2023/10/25 00:39:48;;;;;;;0.93;0.70;;;12.90;99.90;;;;;;5117588;28;20027;-73
2023/10/25 00:42:13;;;;;;;1.50;0.60;;;12.90;99.90;;;;;;5099262;28;20023;-73
2023/10/25 00:44:39;;;;;;;1.25;0.70;;;13.00;99.90;;;;;;5099224;28;20032;-73
2023/10/25 00:47:05;;;;;;;2.00;0.70;;;12.90;99.90;;;;;;5117544;28;20016;-74
2023/10/25 00:49:32;;;;;;;1.17;0.60;;;12.90;99.90;;;;;;5099241;28;20031;-74
2023/10/25 00:51:58;;;;;;;0.82;0.60;;;13.00;99.90;;;;;;5126487;28;20410;-73
2023/10/25 00:54:23;;;;;;;1.48;0.68;;;13.00;99.90;;;;;;5099193;28;20106;-74
2023/10/25 00:56:49;;;;;;;1.40;0.80;;;13.00;99.90;;;;;;5117578;28;20030;-74
2023/10/25 00:59:17;;;;;;;1.98;0.60;;;13.00;99.90;;;;;;5098645;28;20023;-74
2023/10/25 01:01:45;;;;;;;0.93;0.68;;;13.00;99.90;;;;;;5115708;28;20039;-74
2023/10/25 01:04:11;;;;;;;0.93;0.70;;;13.00;99.90;;;;;;5117328;28;20023;-74
2023/10/25 01:06:36;;;;;;;1.33;0.60;;;13.00;99.90;;;;;;5117478;28;20441;-74
2023/10/25 01:09:02;;;;;;;1.20;0.52;;;13.00;99.90;;;;;;5117330;28;20026;-74
2023/10/25 01:11:28;;;;;;;1.70;0.77;;;13.10;99.90;;;;;;5119048;28;20130;-74
2023/10/25 01:13:53;;;;;;;1.02;0.68;;;13.00;99.90;;;;;;5121551;28;20031;-74
2023/10/25 01:16:19;;;;;;;1.33;0.60;;;13.00;99.90;;;;;;5130102;27;20012;-74
2023/10/25 01:18:45;;;;;;;0.82;0.50;;;13.00;99.90;;;;;;5121052;28;20028;-74
2023/10/25 01:21:11;;;;;;;2.22;0.77;;;13.00;99.90;;;;;;5103192;28;20847;-74
2023/10/25 01:23:36;;;;;;;1.63;0.63;;;13.00;99.90;;;;;;5121060;28;20031;-74
2023/10/25 01:26:02;;;;;;;0.85;0.70;;;13.00;99.90;;;;;;5102787;28;20031;-73
2023/10/25 01:28:28;;;;;;;1.25;0.70;;;13.00;99.90;;;;;;5121120;28;20199;-73
2023/10/25 01:30:53;;;;;;;1.50;0.80;;;13.00;99.90;;;;;;5121093;28;20024;-73
2023/10/25 01:33:19;;;;;;;1.40;0.70;;;13.00;99.90;;;;;;5102320;28;20058;-73
2023/10/25 01:35:44;;;;;;;2.00;0.80;;;13.10;99.90;;;;;;5102775;28;20476;-73
2023/10/25 01:38:10;;;;;;;0.88;0.60;;;13.00;99.90;;;;;;5120901;28;20143;-74
2023/10/25 01:40:35;;;;;;;1.05;0.80;;;13.00;99.90;;;;;;5120574;28;20022;-74
2023/10/25 01:43:01;;;;;;;1.00;0.60;;;13.00;99.90;;;;;;5102334;28;20031;-74
2023/10/25 01:45:27;;;;;;;1.63;0.90;;;13.00;99.90;;;;;;5120828;28;20019;-74
2023/10/25 01:47:53;;;;;;;1.40;0.90;;;13.00;99.90;;;;;;5120114;28;20023;-73
2023/10/25 01:50:19;;;;;;;1.23;0.70;;;13.00;99.90;;;;;;5124162;27;20038;-73
2023/10/25 01:52:45;;;;;;;1.33;0.80;;;13.00;99.90;;;;;;5126868;27;20552;-74
2023/10/25 01:55:11;;;;;;;1.40;0.88;;;13.10;99.90;;;;;;5102256;28;20019;-74
2023/10/25 01:57:37;;;;;;;1.73;0.70;;;13.00;99.90;;;;;;5120536;28;20024;-74
2023/10/25 02:00:03;;;;;;;1.25;0.70;;;13.10;99.90;;;;;;5120312;28;20024;-74
2023/10/25 02:02:29;;;;;;;0.93;0.73;;;13.10;99.90;;;;;;5120194;28;20480;-74
2023/10/25 02:04:55;;;;;;;1.00;0.70;;;13.10;99.90;;;;;;5120456;28;20023;-74
2023/10/25 02:07:21;;;;;;;1.55;0.80;;;13.10;99.90;;;;;;5101741;28;20107;-74
2023/10/25 02:09:46;;;;;;;0.93;0.65;;;13.10;99.90;;;;;;5120280;28;20388;-74
2023/10/25 02:12:12;;;;;;;1.95;0.70;;;13.10;99.90;;;;;;5120240;28;20020;-74
2023/10/25 02:14:37;;;;;;;0.82;0.60;;;13.10;99.90;;;;;;5123561;27;20035;-74
2023/10/25 02:17:03;;;;;;;2.25;1.00;;;13.10;99.90;;;;;;5107914;28;20027;-74
2023/10/25 02:19:29;;;;;;;1.98;0.80;;;13.10;99.90;;;;;;5120345;28;20030;-74
2023/10/25 02:21:54;;;;;;;1.75;0.90;;;13.00;99.90;;;;;;5101263;28;20028;-74
2023/10/25 02:24:20;;;;;;;2.35;0.90;;;13.00;99.90;;;;;;5119509;28;20055;-74
2023/10/25 02:26:45;;;;;;;1.83;0.90;;;13.00;99.90;;;;;;5119722;28;20052;-74
2023/10/25 02:29:11;;;;;;;2.50;1.20;;;13.00;99.90;;;;;;5120143;28;20031;-74
2023/10/25 02:31:37;;;;;;;2.03;1.15;;;13.00;99.90;;;;;;5119659;28;20024;-74
2023/10/25 02:34:03;;;;;;;2.13;1.20;;;13.00;99.90;;;;;;5119849;28;20024;-74
2023/10/25 02:36:30;;;;;;;1.30;1.00;;;12.90;99.90;;;;;;5119558;28;20028;-74
2023/10/25 02:38:57;;;;;;;1.13;0.90;;;12.90;99.90;;;;;;5119967;28;20023;-74
2023/10/25 02:41:23;;;;;;;2.20;1.13;;;12.90;99.90;;;;;;5119306;28;20030;-74
2023/10/25 02:43:51;;;;;;;1.10;0.95;;;12.90;99.90;;;;;;5119797;28;20032;-74
2023/10/25 02:46:17;;;;;;;1.65;1.00;;;12.90;99.90;;;;;;5119573;28;20047;-74
2023/10/25 02:48:42;;;;;;;1.73;1.10;;;12.90;99.90;;;;;;5119355;28;20523;-74
2023/10/25 02:51:08;;;;;;;1.88;1.10;;;12.90;99.90;;;;;;5128821;27;20031;-74
2023/10/25 02:53:34;;;;;;;2.13;1.10;;;12.90;99.90;;;;;;5119532;28;20494;-73
2023/10/25 02:56:05;;;;;;;1.98;0.98;;;12.90;99.90;;;;;;5119213;28;20031;-73
2023/10/25 02:58:31;;;;;;;1.10;0.98;;;12.90;99.90;;;;;;5119527;28;20016;-73
2023/10/25 03:00:57;;;;;;;1.58;1.00;;;12.90;99.90;;;;;;5119087;28;20089;-72
2023/10/25 03:03:26;;;;;;;1.70;0.98;;;12.90;99.90;;;;;;5119143;28;20024;-74
2023/10/25 03:05:52;;;;;;;2.25;1.02;;;12.80;99.90;;;;;;5119001;28;20020;-74
2023/10/25 03:08:18;;;;;;;1.20;1.00;;;12.80;99.90;;;;;;5119266;28;20401;-74
2023/10/25 03:10:43;;;;;;;1.45;1.20;;;12.80;99.90;;;;;;5118858;28;20034;-73
2023/10/25 03:13:09;;;;;;;1.42;1.10;;;12.80;99.90;;;;;;5119225;28;20548;-74
2023/10/25 03:15:34;;;;;;;1.60;1.30;;;12.80;99.90;;;;;;5128695;27;20023;-74
2023/10/25 03:18:01;;;;;;;3.63;1.08;;;12.80;99.90;;;;;;5118953;28;20110;-74
2023/10/25 03:20:28;;;;;;;1.65;1.15;;;12.80;99.90;;;;;;5118760;28;20050;-74
2023/10/25 03:22:54;;;;;;;1.88;1.10;;;12.80;99.90;;;;;;5119054;28;20076;-74
2023/10/25 03:25:19;;;;;;;1.67;1.00;;;12.90;99.90;;;;;;5118530;28;20749;-74
2023/10/25 03:27:45;;;;;;;1.65;1.02;;;12.90;99.90;;;;;;5118912;28;20022;-74
2023/10/25 03:30:11;;;;;;;2.00;1.00;;;12.80;99.90;;;;;;5118710;28;20024;-74
2023/10/25 03:32:36;;;;;;;2.35;1.13;;;12.90;99.90;;;;;;5118573;28;20408;-74
2023/10/25 03:35:02;;;;;;;1.27;1.00;;;12.90;99.90;;;;;;5118309;28;20050;-72
2023/10/25 03:37:28;;;;;;;2.58;1.00;;;12.90;99.90;;;;;;5118723;28;20437;-73
2023/10/25 03:39:53;;;;;;;1.60;1.10;;;12.90;99.90;;;;;;5118279;28;20026;-73
2023/10/25 03:42:19;;;;;;;1.63;1.08;;;12.90;99.90;;;;;;5100009;28;20020;-74
2023/10/25 03:44:45;;;;;;;1.40;1.10;;;12.90;99.90;;;;;;5118112;28;20032;-74
2023/10/25 03:47:10;;;;;;;2.17;1.20;;;12.90;99.90;;;;;;5118327;28;20550;-74
2023/10/25 03:49:36;;;;;;;2.45;1.30;;;12.90;99.90;;;;;;5099745;28;20036;-74
2023/10/25 03:52:02;;;;;;;1.45;1.00;;;12.90;99.90;;;;;;5109298;28;20028;-73
2023/10/25 03:54:28;;;;;;;1.83;1.10;;;12.90;99.90;;;;;;5118055;28;20028;-73
2023/10/25 03:56:53;;;;;;;2.55;0.90;;;12.90;99.90;;;;;;5118357;28;20057;-73
2023/10/25 03:59:19;;;;;;;1.90;1.20;;;12.90;99.90;;;;;;5099868;28;20020;-73
2023/10/25 04:01:45;;;;;;;1.67;1.05;;;12.90;99.90;;;;;;5117928;28;20046;-73
2023/10/25 04:04:11;;;;;;;1.65;1.17;;;12.90;99.90;;;;;;5117984;28;20023;-74
2023/10/25 04:06:37;;;;;;;1.88;1.15;;;12.90;99.90;;;;;;5118280;28;20103;-74
2023/10/25 04:09:03;;;;;;;1.80;1.15;;;12.90;99.90;;;;;;5117847;28;20095;-74
2023/10/25 04:11:29;;;;;;;1.33;0.95;;;12.90;99.90;;;;;;5099694;28;20038;-74
2023/10/25 04:13:55;;;;;;;2.70;1.08;;;12.90;99.90;;;;;;5117926;28;20027;-74
2023/10/25 04:16:20;;;;;;;1.90;1.20;;;12.90;99.90;;;;;;5108794;28;20020;-74
2023/10/25 04:18:46;;;;;;;1.50;1.00;;;12.90;99.90;;;;;;5117787;28;20032;-73
2023/10/25 04:21:12;;;;;;;1.38;0.98;;;12.90;99.90;;;;;;5117913;28;20069;-74
2023/10/25 04:23:39;;;;;;;2.40;1.10;;;12.90;99.90;;;;;;5117705;28;20034;-74
2023/10/25 04:26:07;;;;;;;1.33;1.08;;;12.90;99.90;;;;;;5117865;28;20030;-74
2023/10/25 04:28:33;;;;;;;2.55;1.00;;;12.90;99.90;;;;;;5117780;28;20034;-73
2023/10/25 04:30:59;;;;;;;1.23;1.00;;;12.90;99.90;;;;;;5099500;28;20024;-74
2023/10/25 04:33:25;;;;;;;1.60;1.10;;;12.90;99.90;;;;;;5117271;28;20034;-74
2023/10/25 04:35:51;;;;;;;2.10;1.35;;;12.90;99.90;;;;;;5117774;28;20016;-74
2023/10/25 04:38:16;;;;;;;2.00;1.25;;;12.90;99.90;;;;;;5117554;28;20019;-74
2023/10/25 04:40:42;;;;;;;1.33;1.10;;;12.90;99.90;;;;;;5117436;28;20024;-74
2023/10/25 04:43:08;;;;;;;4.03;1.30;;;12.90;99.90;;;;;;5117527;28;20110;-74
2023/10/25 04:45:37;;;;;;;1.20;0.90;;;12.90;99.90;;;;;;5117646;28;20031;-73
2023/10/25 04:48:03;;;;;;;1.73;1.02;;;12.90;99.90;;;;;;5121469;28;20023;-74
2023/10/25 04:50:34;;;;;;;2.10;0.90;;;12.90;99.90;;;;;;5126867;27;20016;-74
2023/10/25 04:53:03;;;;;;;1.75;1.10;;;12.90;99.90;;;;;;5125249;27;20038;-73
2023/10/25 04:55:30;;;;;;;1.55;1.20;;;12.90;99.90;;;;;;5121728;28;20037;-73
2023/10/25 04:57:57;;;;;;;1.65;0.90;;;12.90;99.90;;;;;;5121673;28;20030;-72
2023/10/25 05:00:23;;;;;;;1.55;1.10;;;12.90;99.90;;;;;;5121508;28;20034;-73
2023/10/25 05:02:49;;;;;;;1.65;1.08;;;12.90;99.90;;;;;;5121321;28;20028;-73
2023/10/25 05:05:15;;;;;;;1.67;1.00;;;12.90;99.90;;;;;;5121669;28;20476;-73
2023/10/25 05:07:41;;;;;;;1.38;0.95;;;12.90;99.90;;;;;;5121541;28;20024;-74
2023/10/25 05:10:08;;;;;;;1.75;1.17;;;12.90;99.90;;;;;;5121221;28;20023;-74
2023/10/25 05:12:41;;;;;;;2.95;1.17;;;12.90;99.90;;;;;;5121254;28;20027;-73
2023/10/25 05:15:08;;;;;;;;;;;12.90;99.90;;;;;;5129338;27;20027;-73
2023/10/25 05:17:34;;;;;;;2.30;1.00;;;12.80;99.90;;;;;;5122414;27;20383;-73
2023/10/25 05:20:01;;;;;;;1.60;0.88;;;12.80;99.90;;;;;;5121441;28;20028;-74
2023/10/25 05:22:29;;;;;;;1.27;1.08;;;12.80;99.90;;;;;;5102772;28;20016;-74
2023/10/25 05:24:55;;;;;;;2.15;1.10;;;12.80;99.90;;;;;;5121178;28;20019;-73
2023/10/25 05:27:21;;;;;;;2.03;1.10;;;12.80;99.90;;;;;;5121010;28;20027;-73
2023/10/25 05:29:47;;;;;;;1.30;1.10;;;12.80;99.90;;;;;;5121315;28;20423;-73
2023/10/25 05:32:17;;;;;;;2.10;1.05;;;12.80;99.90;;;;;;5120757;28;20034;-73
2023/10/25 05:34:43;;;;;;;1.27;1.10;;;12.80;99.90;;;;;;5120967;28;20022;-73
2023/10/25 05:37:09;;;;;;;1.60;1.30;;;12.90;99.90;;;;;;5102164;28;20023;-73
2023/10/25 05:39:35;;;;;;;2.20;1.38;;;12.90;99.90;;;;;;5120287;28;20128;-73
2023/10/25 05:42:04;;;;;;;1.48;1.27;;;12.90;99.90;;;;;;5120414;28;20500;-73
2023/10/25 05:44:31;;;;;;;1.70;1.10;;;12.90;99.90;;;;;;5120811;28;20046;-74
2023/10/25 05:46:57;;;;;;;1.25;1.15;;;12.90;99.90;;;;;;5120586;28;20027;-75
2023/10/25 05:49:23;;;;;;;1.52;1.15;;;12.90;99.90;;;;;;5120558;28;20034;-75
2023/10/25 05:51:49;;;;;;;1.30;1.20;;;12.90;99.90;;;;;;5129899;27;20035;-75
2023/10/25 05:54:15;;;;;;;1.85;1.40;;;12.90;99.90;;;;;;5096737;28;20024;-74
2023/10/25 05:56:41;;;;;;;1.80;1.25;;;12.90;99.90;;;;;;5106606;28;20484;-74
2023/10/25 05:59:07;;;;;;;3.33;1.50;;;12.90;99.90;;;;;;5120820;28;20023;-73
2023/10/25 06:01:49;;;;;;;2.25;1.50;;;12.90;99.90;;;;;;5119378;28;20039;-74
2023/10/25 06:04:16;;;;;;;2.03;1.10;;;12.90;99.90;;;;;;5119154;28;20024;-74
2023/10/25 06:06:45;;;;;;;1.92;1.20;;;12.90;99.90;;;;;;5119932;28;20047;-74
2023/10/25 06:09:12;;;;;;;2.80;1.65;;;12.90;99.90;;;;;;5119146;28;20077;-74
2023/10/25 06:11:39;;;;;;;2.42;1.50;;;12.90;99.90;;;;;;5101807;28;20023;-74
2023/10/25 06:14:08;;;;;;;1.60;1.23;;;12.90;99.90;;;;;;5101681;28;20040;-75
2023/10/25 06:16:34;;;;;;;1.73;1.23;;;12.90;99.90;;;;;;5118645;28;20029;-74
2023/10/25 06:19:00;;;;;;;4.05;1.70;;;12.90;99.90;;;;;;5101003;28;20056;-74
2023/10/25 06:21:26;;;;;;;2.38;1.60;;;12.90;99.90;;;;;;5119621;28;20098;-74
2023/10/25 06:23:52;;;;;;;2.40;1.38;;;13.00;99.90;;;;;;5119071;28;20032;-75
2023/10/25 06:26:18;;;;;;;2.67;1.50;;;13.00;99.90;;;;;;5118675;28;20043;-74
2023/10/25 06:28:44;;;;;;;2.53;1.63;;;13.00;99.90;;;;;;5102655;28;20039;-74
2023/10/25 06:31:14;;;;;;;2.35;1.90;;;13.00;99.90;;;;;;5118780;28;20038;-73
2023/10/25 06:33:41;;;;;;;2.22;1.60;;;13.00;99.90;;;;;;5118903;28;20027;-74
2023/10/25 06:36:07;;;;;;;2.55;1.50;;;13.00;99.90;;;;;;5118943;28;20026;-74
2023/10/25 06:38:34;;;;;;;2.90;1.77;;;13.00;99.90;;;;;;5118766;28;20018;-74
2023/10/25 06:41:00;;;;;;;2.67;1.27;;;13.00;99.90;;;;;;5099918;28;20028;-74
2023/10/25 06:43:28;;;;;;;2.88;1.30;;;13.10;99.90;;;;;;5118566;28;20015;-74
2023/10/25 06:45:54;;;;;;;3.15;1.20;;;13.10;99.90;;;;;;5102474;28;20035;-74
2023/10/25 06:48:20;;;;;;;2.00;1.10;;;13.10;99.90;;;;;;5118209;28;20043;-74
2023/10/25 06:50:46;;;;;;;1.73;1.20;;;13.10;99.90;;;;;;5125919;27;20027;-74
2023/10/25 06:53:12;;;;;;;2.63;1.42;;;13.20;99.90;;;;;;5121135;27;20028;-74
2023/10/25 06:55:38;;;;;;;1.67;1.17;;;13.20;99.90;;;;;;5119266;28;20024;-75
2023/10/25 06:58:04;;;;;;;2.67;1.20;;;13.20;99.90;;;;;;5118250;28;20026;-75
2023/10/25 07:00:30;;;;;;;3.33;1.00;;;13.20;99.90;;;;;;5096757;28;20093;-75
2023/10/25 07:03:04;;;;;;;2.83;1.10;;;13.20;99.90;;;;;;5097175;28;20028;-74
2023/10/25 07:05:30;;;;;;;2.17;1.08;;;13.30;99.90;;;;;;5098941;28;20051;-74
2023/10/25 07:07:56;;;;;;;1.35;1.00;;;13.30;99.90;;;;;;5098876;28;20020;-72
2023/10/25 07:10:23;;;;;;;1.83;0.90;;;13.30;99.90;;;;;;5098184;28;20028;-74
2023/10/25 07:12:49;;;;;;;2.40;0.98;;;13.30;99.90;;;;;;5098728;28;20487;-72
2023/10/25 07:15:15;;;;;;;1.52;1.13;;;13.40;99.90;;;;;;5098619;28;20024;-71
2023/10/25 07:17:44;;;;;;;4.30;1.20;;;13.40;99.90;;;;;;5095905;28;20016;-70
2023/10/25 07:20:12;;;;;;;2.22;1.10;;;13.40;99.90;;;;;;5096605;28;20038;-70
2023/10/25 07:22:38;;;;;;;2.42;1.23;;;13.40;99.90;;;;;;5082759;28;20042;-68
2023/10/25 07:25:05;;;;;;;2.88;1.02;;;13.40;99.90;;;;;;5096571;28;20054;-68
2023/10/25 07:27:31;;;;;;;2.00;1.00;;;13.40;99.90;;;;;;5097106;28;20075;-69
2023/10/25 07:29:56;;;;;;;1.27;0.80;;;13.40;99.90;;;;;;5098104;28;20028;-68
2023/10/25 07:32:22;;;;;;;1.75;1.00;;;13.40;99.90;;;;;;5097941;28;20077;-68
2023/10/25 07:34:48;;;;;;;3.30;1.25;;;13.40;99.90;;;;;;5091713;28;20028;-70
2023/10/25 07:37:15;;;;;;;3.30;1.10;;;13.50;99.90;;;;;;5096902;28;20024;-70
2023/10/25 07:39:41;;;;;;;1.50;0.80;;;13.50;99.90;;;;;;5097972;28;20020;-69
2023/10/25 07:42:07;;;;;;;2.63;1.30;;;13.50;99.90;;;;;;5091941;28;20027;-70
2023/10/25 07:44:33;;;;;;;2.40;1.13;;;13.50;99.90;;;;;;5096713;28;20028;-70
2023/10/25 07:46:59;;;;;;;2.63;1.27;;;13.50;99.90;;;;;;5098071;28;20039;-70
2023/10/25 07:49:25;;;;;;;2.50;1.25;;;13.50;99.90;;;;;;5096300;28;20023;-70
2023/10/25 07:51:52;;;;;;;1.75;1.10;;;13.60;99.90;;;;;;5097487;28;20054;-70
2023/10/25 07:54:18;;;;;;;3.13;1.20;;;13.60;99.90;;;;;;5097558;28;20028;-71
2023/10/25 07:56:43;;;;;;;2.83;1.02;;;13.50;99.90;;;;;;5097705;28;20020;-70
2023/10/25 07:59:09;;;;;;;2.95;1.48;;;13.50;99.90;;;;;;5092527;28;20031;-70
2023/10/25 08:01:37;;;;;;;1.40;1.13;;;13.50;99.90;;;;;;5105877;28;20040;-71
2023/10/25 08:04:05;;;;;;;1.35;1.00;;;13.50;99.90;;;;;;5117414;28;20500;-71
2023/10/25 08:06:31;;;;;;;1.50;1.15;;;13.50;99.90;;;;;;5101358;28;20487;-70
2023/10/25 08:08:57;;;;;;;2.60;1.40;;;13.60;99.90;;;;;;5099505;27;20050;-69
2023/10/25 08:11:23;;;;;;;1.83;1.10;;;13.60;99.90;;;;;;5116981;27;20442;-70
2023/10/25 08:13:48;;;;;;;1.83;1.35;;;13.60;99.90;;;;;;5117780;27;20031;-69
2023/10/25 08:16:14;;;;;;;1.35;1.00;;;13.70;99.90;;;;;;5117049;28;20384;-71
2023/10/25 08:18:40;;;;;;;1.30;1.00;;;13.80;99.90;;;;;;5117331;28;20035;-70
2023/10/25 08:21:12;;;;;;;1.33;1.05;;;13.90;99.90;;;;;;5116532;28;20019;-71
2023/10/25 08:23:38;;;;;;;2.38;0.98;;;13.80;99.90;;;;;;5117966;28;20026;-71
2023/10/25 08:26:04;;;;;;;1.10;0.80;;;13.80;99.90;;;;;;5128612;27;20020;-71
2023/10/25 08:28:30;;;;;;;1.20;0.60;;;13.70;99.90;;;;;;5099289;28;20036;-72
2023/10/25 08:30:55;;;;;;;0.80;0.60;;;13.60;99.90;;;;;;5096734;28;20027;-72
2023/10/25 08:33:21;;;;;;;0.93;0.63;;;13.60;99.90;;;;;;5098896;28;20032;-73
2023/10/25 08:35:47;;;;;;;0.80;0.60;;;13.60;99.90;;;;;;5099390;28;20076;-72
2023/10/25 08:38:12;;;;;;;0.63;0.35;;;13.50;99.90;;;;;;5117614;28;20032;-72
2023/10/25 08:40:40;;;;;;;1.23;0.40;;;13.60;99.90;;;;;;5099007;28;20019;-72
2023/10/25 08:43:07;;;;;;;0.60;0.40;;;13.60;99.90;;;;;;5117351;28;20059;-69
2023/10/25 08:45:35;;;;;;;0.77;0.60;;;13.60;99.90;;;;;;5099563;28;20027;-69
2023/10/25 08:48:03;;;;;;;0.70;0.52;;;13.50;99.90;;;;;;5117191;28;20039;-69
2023/10/25 08:50:31;;;;;;;0.90;0.45;;;13.50;99.90;;;;;;5122257;28;20020;-69
2023/10/25 08:52:57;;;;;;;0.80;0.60;;;13.50;99.90;;;;;;5121815;28;20021;-69
2023/10/25 08:55:23;;;;;;;0.60;0.40;;;13.40;99.90;;;;;;5117280;28;20016;-71
2023/10/25 08:57:54;;;;;;;0.85;0.40;;;13.40;99.90;;;;;;5116924;28;20028;-69
2023/10/25 09:00:20;;;;;;;0.52;0.43;;;13.40;99.90;;;;;;5117032;28;20040;-73
2023/10/25 09:02:46;;;;;;;1.25;0.65;;;13.40;99.90;;;;;;5115929;28;20035;-72
2023/10/25 09:05:12;;;;;;;0.75;0.50;;;13.40;99.90;;;;;;5097979;28;20030;-72
2023/10/25 09:07:38;;;;;;;1.30;0.57;;;13.50;99.90;;;;;;5116580;28;20090;-72
2023/10/25 09:10:19;;;;;;;0.80;0.55;;;13.60;99.90;;;;;;5106096;28;20049;-68
2023/10/25 09:12:46;;;;;;;1.60;0.70;;;13.60;99.90;;;;;;5115547;28;20068;-70
2023/10/25 09:15:11;;;;;;;0.90;0.70;;;13.60;99.90;;;;;;5098582;28;20035;-69
2023/10/25 09:17:37;;;;;;;0.98;0.70;;;13.60;99.90;;;;;;5100109;28;20015;-69
2023/10/25 09:20:07;;;;;;;1.85;1.15;;;13.60;99.90;;;;;;5116793;28;20023;-69
2023/10/25 09:22:32;;;;;;;0.95;0.60;;;13.70;99.90;;;;;;5116332;28;20020;-72
2023/10/25 09:25:00;;;;;;;0.57;0.47;;;13.70;99.90;;;;;;5099471;28;20057;-71
2023/10/25 09:27:26;;;;;;;1.60;0.63;;;13.70;99.90;;;;;;5116643;28;20085;-70
2023/10/25 09:29:53;;;;;;;1.63;0.60;;;13.70;99.90;;;;;;5116713;28;20494;-70
2023/10/25 09:32:21;;;;;;;0.63;0.52;;;13.70;99.90;;;;;;5117750;28;20520;-71
2023/10/25 09:34:48;;;;;;;1.13;0.55;;;13.70;99.90;;;;;;5120320;28;20023;-72
2023/10/25 09:37:14;;;;;;;0.80;0.45;;;13.80;99.90;;;;;;5118182;28;20085;-72
2023/10/25 09:39:40;;;;;;;2.03;0.57;;;13.90;99.90;;;;;;5101486;28;20399;-71
2023/10/25 09:42:10;;;;;;;0.68;0.45;;;13.90;99.90;;;;;;5119303;28;20019;-72
2023/10/25 09:44:51;;;;;;;1.33;0.50;;;13.90;99.90;;;;;;5120276;28;20011;-72
2023/10/25 09:47:18;;;;;;;0.60;0.40;;;14.00;99.90;;;;;;5116112;28;20055;-69
2023/10/25 09:49:48;;;;;;;0.43;0.40;;;14.00;99.90;;;;;;5120140;28;20028;-69
2023/10/25 09:52:26;;;;;;;0.75;0.40;;;14.10;99.90;;;;;;5121168;27;20028;-69
2023/10/25 09:54:58;;;;;;;0.52;0.40;;;14.10;99.90;;;;;;5118086;28;20093;-69
2023/10/25 09:57:28;;;;;;;0.75;0.40;;;14.20;99.90;;;;;;5119913;28;20016;-70
2023/10/25 09:59:56;;;;;;;0.70;0.40;;;14.20;99.90;;;;;;5101903;28;20326;-69
2023/10/25 10:02:46;;;;;;;1.23;0.40;;;14.30;99.90;;;;;;5100846;28;20053;-69
2023/10/25 10:05:31;;;;;;;1.40;0.50;;;14.30;99.90;;;;;;5117110;28;20098;-71
2023/10/25 10:08:18;;;;;;;1.13;0.57;;;14.30;99.90;;;;;;5118522;28;20070;-69
2023/10/25 10:10:57;;;;;;;1.25;0.68;;;14.30;99.90;;;;;;5116957;28;20042;-69
2023/10/25 10:13:23;;;;;;;1.95;0.70;;;14.30;99.90;;;;;;5098302;28;20024;-70
2023/10/25 10:16:00;;;;;;;1.10;0.60;;;14.30;99.90;;;;;;5112072;28;20045;-70
2023/10/25 10:18:32;;;;;;;1.40;0.40;;;14.20;99.90;;;;;;5118444;28;20027;-69
2023/10/25 10:21:00;;;;;;;0.60;0.50;;;14.20;99.90;;;;;;5120015;28;20102;-72
2023/10/25 10:23:49;;;;;;;1.13;0.47;;;14.20;99.90;;;;;;5120009;28;20027;-73
2023/10/25 10:26:44;;;;;;;0.40;0.40;;;14.30;99.90;;;;;;5089902;28;20024;-73
2023/10/25 10:29:31;;;;;;;2.60;0.50;;;14.40;99.90;;;;;;5101366;28;20024;-73
2023/10/25 10:31:59;;;;;;;1.10;0.50;;;14.40;99.90;;;;;;5101031;28;20407;-74
2023/10/25 10:34:40;;;;;;;1.27;0.50;;;14.50;99.90;;;;;;5119784;28;20521;-73
2023/10/25 10:37:39;;;;;;;0.70;0.40;;;14.40;99.90;;;;;;5118736;28;20114;-72
2023/10/25 10:40:04;;;;;;;0.55;0.32;;;14.30;99.90;;;;;;5070534;28;20391;-73
2023/10/25 10:42:30;;;;;;;1.77;0.50;;;14.30;99.90;;;;;;5101126;28;20020;-73
2023/10/25 10:45:01;;;;;;;1.35;0.55;;;14.20;99.90;;;;;;5100083;28;20051;-73
2023/10/25 10:47:39;;;;;;;0.70;0.50;;;14.20;99.90;;;;;;5104850;28;20035;-70
2023/10/25 10:50:11;;;;;;;1.67;0.55;;;14.20;99.90;;;;;;5120290;27;20544;-70
2023/10/25 10:52:38;;;;;;;0.50;0.50;;;14.30;99.90;;;;;;5107977;28;20030;-70
2023/10/25 10:55:05;;;;;;;9.38;5.00;;;14.30;99.90;;;;;;5117846;28;20043;-70
2023/10/25 10:57:31;;;;;;;2.20;1.33;;;14.50;99.90;;;;;;5116281;28;20051;-71
2023/10/25 10:59:56;;;;;;;1.92;1.10;;;14.50;99.90;;;;;;5099374;28;20110;-73
2023/10/25 11:02:22;;;;;;;1.20;0.80;;;14.50;99.90;;;;;;5117977;28;20051;-72
2023/10/25 11:04:48;;;;;;;1.75;0.70;;;14.70;99.90;;;;;;5101092;28;20391;-72
2023/10/25 11:07:16;;;;;;;1.20;0.80;;;14.80;99.90;;;;;;5117913;28;20057;-71
2023/10/25 11:09:42;;;;;;;1.48;0.70;;;14.90;99.90;;;;;;5099622;28;20031;-71
2023/10/25 11:12:14;;;;;;;1.17;0.70;;;14.90;99.90;;;;;;5117713;28;20024;-71
2023/10/25 11:14:45;;;;;;;1.00;0.60;;;14.80;99.90;;;;;;5115176;28;20480;-70
2023/10/25 11:17:11;;;;;;;2.40;0.50;;;14.90;99.90;;;;;;5117548;28;20012;-70
2023/10/25 11:19:37;;;;;;;0.80;0.50;;;15.00;99.90;;;;;;5117791;28;20055;-69
2023/10/25 11:22:02;;;;;;;1.77;0.47;;;15.00;99.90;;;;;;5117542;28;20019;-69
2023/10/25 11:24:29;;;;;;;0.95;0.50;;;15.10;99.90;;;;;;5125427;27;20492;-72
2023/10/25 11:26:54;;;;;;;1.35;0.63;;;15.10;99.90;;;;;;5122806;27;20015;-72
2023/10/25 11:29:23;;;;;;;1.15;0.57;;;15.10;99.90;;;;;;5118402;28;20099;-72
2023/10/25 11:31:55;;;;;;;0.65;0.30;;;15.00;99.90;;;;;;5117104;28;20497;-71
2023/10/25 11:34:21;;;;;;;1.27;0.63;;;15.10;99.90;;;;;;5118259;28;20023;-72
2023/10/25 11:36:48;;;;;;;0.90;0.50;;;15.10;99.90;;;;;;5118566;28;20019;-71
2023/10/25 11:39:14;;;;;;;0.77;0.50;;;15.00;99.90;;;;;;5118606;28;20027;-72
2023/10/25 11:41:40;;;;;;;0.68;0.45;;;14.90;99.90;;;;;;5100528;28;20031;-72
2023/10/25 11:44:06;;;;;;;1.17;0.50;;;15.00;99.90;;;;;;5100044;28;20513;-71
2023/10/25 11:46:37;;;;;;;1.05;0.50;;;15.00;99.90;;;;;;5118104;28;20069;-71
2023/10/25 11:49:04;;;;;;;1.00;0.40;;;15.00;99.90;;;;;;5118441;28;20062;-71
2023/10/25 11:51:34;;;;;;;1.92;0.60;;;15.00;99.90;;;;;;5117933;28;20027;-71
2023/10/25 11:54:04;;;;;;;1.10;0.50;;;14.90;99.90;;;;;;5118349;28;20023;-71
2023/10/25 11:56:30;;;;;;;3.53;0.50;;;14.90;99.90;;;;;;5116577;28;20042;-71
2023/10/25 11:58:56;;;;;;;0.50;0.40;;;15.00;99.90;;;;;;5118299;28;20023;-71
2023/10/25 12:01:22;;;;;;;0.88;0.40;;;15.10;99.90;;;;;;5117750;28;20395;-71
2023/10/25 12:03:47;;;;;;;1.23;0.32;;;15.10;99.90;;;;;;5118149;28;20039;-72
2023/10/25 12:06:13;;;;;;;0.50;0.40;;;15.10;99.90;;;;;;5118036;28;20030;-72
2023/10/25 12:08:42;;;;;;;1.20;0.40;;;15.20;99.90;;;;;;5118234;28;20027;-71
2023/10/25 12:11:10;;;;;;;1.75;0.60;;;15.20;99.90;;;;;;5116553;28;20023;-71
2023/10/25 12:13:40;;;;;;;0.80;0.50;;;15.20;99.90;;;;;;5116646;28;20027;-71
2023/10/25 12:16:08;;;;;;;1.48;0.63;;;15.30;99.90;;;;;;5117652;28;20031;-72
2023/10/25 12:18:35;;;;;;;1.63;0.45;;;15.50;99.90;;;;;;5117963;28;20015;-72
2023/10/25 12:21:08;;;;;;;0.65;0.40;;;15.60;99.90;;;;;;5107420;28;20058;-72
2023/10/25 12:23:34;;;;;;;1.42;0.60;;;15.50;99.90;;;;;;5117820;28;20081;-72
2023/10/25 12:26:00;;;;;;;0.47;0.32;;;15.50;99.90;;;;;;5130738;27;20087;-71
2023/10/25 12:28:26;;;;;;;0.60;0.40;;;15.60;99.90;;;;;;5099546;28;20395;-72
2023/10/25 12:30:52;;;;;;;1.15;0.43;;;15.60;99.90;;;;;;5099508;28;20024;-71
2023/10/25 12:33:18;;;;;;;1.05;0.50;;;15.60;99.90;;;;;;5117524;28;20028;-71
2023/10/25 12:35:44;;;;;;;1.48;0.50;;;15.70;99.90;;;;;;5099380;28;20396;-71
2023/10/25 12:38:10;;;;;;;0.50;0.30;;;15.70;99.90;;;;;;5117713;28;20041;-71
2023/10/25 12:40:36;;;;;;;1.55;0.60;;;15.80;99.90;;;;;;5099291;28;20593;-71
2023/10/25 12:43:01;;;;;;;0.60;0.40;;;15.70;99.90;;;;;;5117644;28;20062;-70
2023/10/25 12:45:28;;;;;;;1.60;0.40;;;15.80;99.90;;;;;;5117704;28;20027;-72
2023/10/25 12:47:54;;;;;;;1.75;0.63;;;15.80;99.90;;;;;;5117312;28;20020;-70